sensor_id;sensor_type;location;lat;lon;timestamp;P1;durP1;ratioP1;P2;durP2;ratioP2
5620;SDS011;2832;50.864;12.186;2022-07-06T00:00:04;0.50;;;0.50;;
5620;SDS011;2832;50.864;12.186;2022-07-06T00:02:33;0.60;;;0.60;;
5620;SDS011;2832;50.864;12.186;2022-07-06T00:05:01;0.60;;;0.60;;
5620;SDS011;2832;50.864;12.186;2022-07-06T00:07:29;0.70;;;0.70;;
5620;SDS011;2832;50.864;12.186;2022-07-06T00:09:57;0.70;;;0.70;;
5620;SDS011;2832;50.864;12.186;2022-07-06T00:12:25;0.60;;;0.60;;
5620;SDS011;2832;50.864;12.186;2022-07-06T00:14:54;0.60;;;0.60;;
5620;SDS011;2832;50.864;12.186;2022-07-06T00:17:22;0.60;;;0.60;;
5620;SDS011;2832;50.864;12.186;2022-07-06T00:19:50;0.70;;;0.70;;
5620;SDS011;2832;50.864;12.186;2022-07-06T00:22:18;0.60;;;0.60;;
5620;SDS011;2832;50.864;12.186;2022-07-06T00:24:46;0.60;;;0.60;;
5620;SDS011;2832;50.864;12.186;2022-07-06T00:27:13;0.63;;;0.63;;
5620;SDS011;2832;50.864;12.186;2022-07-06T00:29:41;0.60;;;0.60;;
5620;SDS011;2832;50.864;12.186;2022-07-06T00:32:11;0.60;;;0.60;;
5620;SDS011;2832;50.864;12.186;2022-07-06T00:34:39;0.60;;;0.60;;
5620;SDS011;2832;50.864;12.186;2022-07-06T00:37:06;0.53;;;0.53;;
5620;SDS011;2832;50.864;12.186;2022-07-06T00:39:34;0.70;;;0.70;;
5620;SDS011;2832;50.864;12.186;2022-07-06T00:42:02;0.60;;;0.60;;
5620;SDS011;2832;50.864;12.186;2022-07-06T00:44:30;0.60;;;0.60;;
5620;SDS011;2832;50.864;12.186;2022-07-06T00:46:58;0.60;;;0.60;;
5620;SDS011;2832;50.864;12.186;2022-07-06T00:49:28;0.60;;;0.60;;
5620;SDS011;2832;50.864;12.186;2022-07-06T00:52:13;0.60;;;0.60;;
5620;SDS011;2832;50.864;12.186;2022-07-06T00:54:42;0.60;;;0.60;;
5620;SDS011;2832;50.864;12.186;2022-07-06T00:57:10;0.60;;;0.60;;
5620;SDS011;2832;50.864;12.186;2022-07-06T00:59:38;0.60;;;0.60;;
5620;SDS011;2832;50.864;12.186;2022-07-06T01:02:05;0.60;;;0.60;;
5620;SDS011;2832;50.864;12.186;2022-07-06T01:04:34;0.60;;;0.60;;
5620;SDS011;2832;50.864;12.186;2022-07-06T01:07:03;0.70;;;0.70;;
5620;SDS011;2832;50.864;12.186;2022-07-06T01:09:30;0.60;;;0.60;;
5620;SDS011;2832;50.864;12.186;2022-07-06T01:11:58;0.60;;;0.60;;
5620;SDS011;2832;50.864;12.186;2022-07-06T01:14:25;0.60;;;0.60;;
5620;SDS011;2832;50.864;12.186;2022-07-06T01:16:53;0.70;;;0.70;;
5620;SDS011;2832;50.864;12.186;2022-07-06T01:19:22;0.60;;;0.60;;
5620;SDS011;2832;50.864;12.186;2022-07-06T01:21:51;0.60;;;0.60;;
5620;SDS011;2832;50.864;12.186;2022-07-06T01:24:18;0.60;;;0.60;;
5620;SDS011;2832;50.864;12.186;2022-07-06T01:26:46;0.70;;;0.70;;
5620;SDS011;2832;50.864;12.186;2022-07-06T01:29:14;0.67;;;0.67;;
5620;SDS011;2832;50.864;12.186;2022-07-06T01:31:45;0.67;;;0.67;;
5620;SDS011;2832;50.864;12.186;2022-07-06T01:34:14;0.60;;;0.60;;
5620;SDS011;2832;50.864;12.186;2022-07-06T01:36:44;0.67;;;0.67;;
5620;SDS011;2832;50.864;12.186;2022-07-06T01:39:14;0.60;;;0.60;;
5620;SDS011;2832;50.864;12.186;2022-07-06T01:41:41;0.63;;;0.63;;
5620;SDS011;2832;50.864;12.186;2022-07-06T01:44:09;0.60;;;0.60;;
5620;SDS011;2832;50.864;12.186;2022-07-06T01:46:37;0.60;;;0.60;;
5620;SDS011;2832;50.864;12.186;2022-07-06T01:49:05;0.50;;;0.50;;
5620;SDS011;2832;50.864;12.186;2022-07-06T01:51:32;0.70;;;0.70;;
5620;SDS011;2832;50.864;12.186;2022-07-06T01:54:00;0.60;;;0.60;;
5620;SDS011;2832;50.864;12.186;2022-07-06T01:56:29;0.60;;;0.60;;
5620;SDS011;2832;50.864;12.186;2022-07-06T01:58:57;0.67;;;0.67;;
5620;SDS011;2832;50.864;12.186;2022-07-06T02:01:24;0.60;;;0.60;;
5620;SDS011;2832;50.864;12.186;2022-07-06T02:03:52;0.60;;;0.60;;
5620;SDS011;2832;50.864;12.186;2022-07-06T02:06:19;0.60;;;0.60;;
5620;SDS011;2832;50.864;12.186;2022-07-06T02:08:47;0.60;;;0.60;;
5620;SDS011;2832;50.864;12.186;2022-07-06T02:11:17;0.60;;;0.60;;
5620;SDS011;2832;50.864;12.186;2022-07-06T02:13:47;0.70;;;0.70;;
5620;SDS011;2832;50.864;12.186;2022-07-06T02:16:14;0.60;;;0.60;;
5620;SDS011;2832;50.864;12.186;2022-07-06T02:18:42;0.60;;;0.60;;
5620;SDS011;2832;50.864;12.186;2022-07-06T02:21:09;0.70;;;0.70;;
5620;SDS011;2832;50.864;12.186;2022-07-06T02:23:37;0.70;;;0.70;;
5620;SDS011;2832;50.864;12.186;2022-07-06T02:26:05;0.60;;;0.60;;
5620;SDS011;2832;50.864;12.186;2022-07-06T02:28:33;0.70;;;0.70;;
5620;SDS011;2832;50.864;12.186;2022-07-06T02:31:02;0.63;;;0.63;;
5620;SDS011;2832;50.864;12.186;2022-07-06T02:33:30;0.60;;;0.60;;
5620;SDS011;2832;50.864;12.186;2022-07-06T02:35:58;0.10;;;0.10;;
5620;SDS011;2832;50.864;12.186;2022-07-06T02:38:25;0.20;;;0.20;;
5620;SDS011;2832;50.864;12.186;2022-07-06T02:40:53;0.10;;;0.10;;
5620;SDS011;2832;50.864;12.186;2022-07-06T02:43:21;0.20;;;0.20;;
5620;SDS011;2832;50.864;12.186;2022-07-06T02:45:49;0.10;;;0.10;;
5620;SDS011;2832;50.864;12.186;2022-07-06T02:48:18;0.10;;;0.10;;
5620;SDS011;2832;50.864;12.186;2022-07-06T02:50:46;0.10;;;0.10;;
5620;SDS011;2832;50.864;12.186;2022-07-06T02:53:14;0.10;;;0.10;;
5620;SDS011;2832;50.864;12.186;2022-07-06T02:55:43;0.10;;;0.10;;
5620;SDS011;2832;50.864;12.186;2022-07-06T02:58:11;0.70;;;0.70;;
5620;SDS011;2832;50.864;12.186;2022-07-06T03:00:39;0.67;;;0.67;;
5620;SDS011;2832;50.864;12.186;2022-07-06T03:03:06;0.70;;;0.70;;
5620;SDS011;2832;50.864;12.186;2022-07-06T03:05:36;0.60;;;0.60;;
5620;SDS011;2832;50.864;12.186;2022-07-06T03:08:04;0.60;;;0.60;;
5620;SDS011;2832;50.864;12.186;2022-07-06T03:10:31;0.60;;;0.60;;
5620;SDS011;2832;50.864;12.186;2022-07-06T03:12:59;0.50;;;0.50;;
5620;SDS011;2832;50.864;12.186;2022-07-06T03:15:27;0.67;;;0.67;;
5620;SDS011;2832;50.864;12.186;2022-07-06T03:17:54;0.60;;;0.60;;
5620;SDS011;2832;50.864;12.186;2022-07-06T03:20:22;0.60;;;0.60;;
5620;SDS011;2832;50.864;12.186;2022-07-06T03:22:54;0.60;;;0.60;;
5620;SDS011;2832;50.864;12.186;2022-07-06T03:25:23;0.60;;;0.60;;
5620;SDS011;2832;50.864;12.186;2022-07-06T03:27:52;0.70;;;0.70;;
5620;SDS011;2832;50.864;12.186;2022-07-06T03:30:19;0.70;;;0.70;;
5620;SDS011;2832;50.864;12.186;2022-07-06T03:32:47;0.60;;;0.60;;
5620;SDS011;2832;50.864;12.186;2022-07-06T03:35:15;0.60;;;0.60;;
5620;SDS011;2832;50.864;12.186;2022-07-06T03:37:42;0.60;;;0.60;;
5620;SDS011;2832;50.864;12.186;2022-07-06T03:40:12;0.57;;;0.57;;
5620;SDS011;2832;50.864;12.186;2022-07-06T03:42:40;0.70;;;0.70;;
5620;SDS011;2832;50.864;12.186;2022-07-06T03:45:08;0.60;;;0.60;;
5620;SDS011;2832;50.864;12.186;2022-07-06T03:47:37;0.60;;;0.60;;
5620;SDS011;2832;50.864;12.186;2022-07-06T03:50:05;0.70;;;0.70;;
5620;SDS011;2832;50.864;12.186;2022-07-06T03:52:34;0.70;;;0.70;;
5620;SDS011;2832;50.864;12.186;2022-07-06T03:55:05;0.60;;;0.60;;
5620;SDS011;2832;50.864;12.186;2022-07-06T03:57:36;0.70;;;0.70;;
5620;SDS011;2832;50.864;12.186;2022-07-06T04:00:04;0.70;;;0.70;;
5620;SDS011;2832;50.864;12.186;2022-07-06T04:02:33;0.60;;;0.60;;
5620;SDS011;2832;50.864;12.186;2022-07-06T04:05:01;0.70;;;0.70;;
5620;SDS011;2832;50.864;12.186;2022-07-06T04:07:29;0.70;;;0.70;;
5620;SDS011;2832;50.864;12.186;2022-07-06T04:09:57;0.77;;;0.77;;
5620;SDS011;2832;50.864;12.186;2022-07-06T04:12:25;0.70;;;0.70;;
5620;SDS011;2832;50.864;12.186;2022-07-06T04:14:57;0.70;;;0.70;;
5620;SDS011;2832;50.864;12.186;2022-07-06T04:17:25;0.60;;;0.60;;
5620;SDS011;2832;50.864;12.186;2022-07-06T04:20:10;0.70;;;0.70;;
5620;SDS011;2832;50.864;12.186;2022-07-06T04:22:38;0.70;;;0.70;;
5620;SDS011;2832;50.864;12.186;2022-07-06T04:25:07;0.70;;;0.70;;
5620;SDS011;2832;50.864;12.186;2022-07-06T04:27:35;0.70;;;0.70;;
5620;SDS011;2832;50.864;12.186;2022-07-06T04:30:05;0.70;;;0.70;;
5620;SDS011;2832;50.864;12.186;2022-07-06T04:32:34;0.63;;;0.63;;
5620;SDS011;2832;50.864;12.186;2022-07-06T04:35:02;0.70;;;0.70;;
5620;SDS011;2832;50.864;12.186;2022-07-06T04:37:32;0.50;;;0.50;;
5620;SDS011;2832;50.864;12.186;2022-07-06T04:39:59;0.80;;;0.80;;
5620;SDS011;2832;50.864;12.186;2022-07-06T04:42:27;0.70;;;0.70;;
5620;SDS011;2832;50.864;12.186;2022-07-06T04:44:55;0.80;;;0.80;;
5620;SDS011;2832;50.864;12.186;2022-07-06T04:47:24;0.80;;;0.80;;
5620;SDS011;2832;50.864;12.186;2022-07-06T04:49:52;0.70;;;0.70;;
5620;SDS011;2832;50.864;12.186;2022-07-06T04:52:20;0.73;;;0.73;;
5620;SDS011;2832;50.864;12.186;2022-07-06T04:54:48;0.80;;;0.80;;
5620;SDS011;2832;50.864;12.186;2022-07-06T04:57:16;0.60;;;0.60;;
5620;SDS011;2832;50.864;12.186;2022-07-06T04:59:43;0.80;;;0.80;;
5620;SDS011;2832;50.864;12.186;2022-07-06T05:02:11;0.70;;;0.70;;
5620;SDS011;2832;50.864;12.186;2022-07-06T05:04:40;0.70;;;0.70;;
5620;SDS011;2832;50.864;12.186;2022-07-06T05:07:08;0.77;;;0.77;;
5620;SDS011;2832;50.864;12.186;2022-07-06T05:09:35;0.80;;;0.80;;
5620;SDS011;2832;50.864;12.186;2022-07-06T05:12:04;0.70;;;0.70;;
5620;SDS011;2832;50.864;12.186;2022-07-06T05:14:32;0.70;;;0.70;;
5620;SDS011;2832;50.864;12.186;2022-07-06T05:16:59;0.70;;;0.70;;
5620;SDS011;2832;50.864;12.186;2022-07-06T05:19:27;0.70;;;0.70;;
5620;SDS011;2832;50.864;12.186;2022-07-06T05:21:56;0.70;;;0.70;;
5620;SDS011;2832;50.864;12.186;2022-07-06T05:24:24;0.70;;;0.70;;
5620;SDS011;2832;50.864;12.186;2022-07-06T05:26:52;0.73;;;0.73;;
5620;SDS011;2832;50.864;12.186;2022-07-06T05:29:19;0.70;;;0.70;;
5620;SDS011;2832;50.864;12.186;2022-07-06T05:31:47;0.70;;;0.70;;
5620;SDS011;2832;50.864;12.186;2022-07-06T05:34:15;0.70;;;0.70;;
5620;SDS011;2832;50.864;12.186;2022-07-06T05:36:43;0.70;;;0.70;;
5620;SDS011;2832;50.864;12.186;2022-07-06T05:42:12;0.70;;;0.70;;
5620;SDS011;2832;50.864;12.186;2022-07-06T05:44:40;0.70;;;0.70;;
5620;SDS011;2832;50.864;12.186;2022-07-06T05:47:08;0.80;;;0.80;;
5620;SDS011;2832;50.864;12.186;2022-07-06T05:49:53;0.70;;;0.70;;
5620;SDS011;2832;50.864;12.186;2022-07-06T05:52:39;0.70;;;0.70;;
5620;SDS011;2832;50.864;12.186;2022-07-06T05:55:10;0.70;;;0.70;;
5620;SDS011;2832;50.864;12.186;2022-07-06T05:57:38;0.77;;;0.77;;
5620;SDS011;2832;50.864;12.186;2022-07-06T06:00:07;0.70;;;0.70;;
5620;SDS011;2832;50.864;12.186;2022-07-06T06:02:36;0.70;;;0.70;;
5620;SDS011;2832;50.864;12.186;2022-07-06T06:05:05;0.73;;;0.73;;
5620;SDS011;2832;50.864;12.186;2022-07-06T06:07:34;0.70;;;0.70;;
5620;SDS011;2832;50.864;12.186;2022-07-06T06:10:03;0.70;;;0.70;;
5620;SDS011;2832;50.864;12.186;2022-07-06T06:12:33;0.70;;;0.70;;
5620;SDS011;2832;50.864;12.186;2022-07-06T06:15:00;0.70;;;0.70;;
5620;SDS011;2832;50.864;12.186;2022-07-06T06:17:28;0.70;;;0.70;;
5620;SDS011;2832;50.864;12.186;2022-07-06T06:19:56;0.70;;;0.70;;
5620;SDS011;2832;50.864;12.186;2022-07-06T06:22:26;0.70;;;0.70;;
5620;SDS011;2832;50.864;12.186;2022-07-06T06:24:54;0.77;;;0.77;;
5620;SDS011;2832;50.864;12.186;2022-07-06T06:27:22;0.70;;;0.70;;
5620;SDS011;2832;50.864;12.186;2022-07-06T06:29:51;0.73;;;0.73;;
5620;SDS011;2832;50.864;12.186;2022-07-06T06:32:20;0.80;;;0.80;;
5620;SDS011;2832;50.864;12.186;2022-07-06T06:34:47;0.63;;;0.63;;
5620;SDS011;2832;50.864;12.186;2022-07-06T06:37:15;0.70;;;0.70;;
5620;SDS011;2832;50.864;12.186;2022-07-06T06:39:42;0.70;;;0.70;;
5620;SDS011;2832;50.864;12.186;2022-07-06T06:42:10;0.70;;;0.70;;
5620;SDS011;2832;50.864;12.186;2022-07-06T06:44:38;0.70;;;0.70;;
5620;SDS011;2832;50.864;12.186;2022-07-06T06:47:07;0.80;;;0.80;;
5620;SDS011;2832;50.864;12.186;2022-07-06T06:49:35;0.80;;;0.80;;
5620;SDS011;2832;50.864;12.186;2022-07-06T06:52:03;0.70;;;0.70;;
5620;SDS011;2832;50.864;12.186;2022-07-06T06:54:31;0.70;;;0.70;;
5620;SDS011;2832;50.864;12.186;2022-07-06T06:56:59;0.70;;;0.70;;
5620;SDS011;2832;50.864;12.186;2022-07-06T06:59:28;0.70;;;0.70;;
5620;SDS011;2832;50.864;12.186;2022-07-06T07:01:56;0.80;;;0.80;;
5620;SDS011;2832;50.864;12.186;2022-07-06T07:04:25;0.70;;;0.70;;
5620;SDS011;2832;50.864;12.186;2022-07-06T07:06:54;0.73;;;0.73;;
5620;SDS011;2832;50.864;12.186;2022-07-06T07:09:22;0.67;;;0.67;;
5620;SDS011;2832;50.864;12.186;2022-07-06T07:11:50;0.80;;;0.80;;
5620;SDS011;2832;50.864;12.186;2022-07-06T07:14:19;0.70;;;0.70;;
5620;SDS011;2832;50.864;12.186;2022-07-06T07:16:49;0.70;;;0.70;;
5620;SDS011;2832;50.864;12.186;2022-07-06T07:19:17;0.70;;;0.70;;
5620;SDS011;2832;50.864;12.186;2022-07-06T07:21:46;0.80;;;0.80;;
5620;SDS011;2832;50.864;12.186;2022-07-06T07:24:14;0.70;;;0.70;;
5620;SDS011;2832;50.864;12.186;2022-07-06T07:26:41;0.80;;;0.80;;
5620;SDS011;2832;50.864;12.186;2022-07-06T07:29:09;0.80;;;0.80;;
5620;SDS011;2832;50.864;12.186;2022-07-06T07:31:37;0.70;;;0.70;;
5620;SDS011;2832;50.864;12.186;2022-07-06T07:34:05;0.70;;;0.70;;
5620;SDS011;2832;50.864;12.186;2022-07-06T07:36:32;0.70;;;0.70;;
5620;SDS011;2832;50.864;12.186;2022-07-06T07:39:02;0.70;;;0.70;;
5620;SDS011;2832;50.864;12.186;2022-07-06T07:41:31;0.60;;;0.60;;
5620;SDS011;2832;50.864;12.186;2022-07-06T07:43:58;0.70;;;0.70;;
5620;SDS011;2832;50.864;12.186;2022-07-06T07:46:26;0.70;;;0.70;;
5620;SDS011;2832;50.864;12.186;2022-07-06T07:48:54;0.77;;;0.77;;
5620;SDS011;2832;50.864;12.186;2022-07-06T07:51:21;0.70;;;0.70;;
5620;SDS011;2832;50.864;12.186;2022-07-06T07:53:49;0.70;;;0.70;;
5620;SDS011;2832;50.864;12.186;2022-07-06T07:56:19;0.70;;;0.70;;
5620;SDS011;2832;50.864;12.186;2022-07-06T07:58:46;0.70;;;0.70;;
5620;SDS011;2832;50.864;12.186;2022-07-06T08:01:14;0.80;;;0.80;;
5620;SDS011;2832;50.864;12.186;2022-07-06T08:03:42;0.70;;;0.70;;
5620;SDS011;2832;50.864;12.186;2022-07-06T08:06:09;0.80;;;0.80;;
5620;SDS011;2832;50.864;12.186;2022-07-06T08:08:37;0.80;;;0.80;;
5620;SDS011;2832;50.864;12.186;2022-07-06T08:11:06;0.70;;;0.70;;
5620;SDS011;2832;50.864;12.186;2022-07-06T08:13:36;0.70;;;0.70;;
5620;SDS011;2832;50.864;12.186;2022-07-06T08:16:04;0.70;;;0.70;;
5620;SDS011;2832;50.864;12.186;2022-07-06T08:18:32;0.70;;;0.70;;
5620;SDS011;2832;50.864;12.186;2022-07-06T08:21:00;0.80;;;0.80;;
5620;SDS011;2832;50.864;12.186;2022-07-06T08:23:28;0.70;;;0.70;;
5620;SDS011;2832;50.864;12.186;2022-07-06T08:25:56;0.80;;;0.80;;
5620;SDS011;2832;50.864;12.186;2022-07-06T08:28:24;0.80;;;0.80;;
5620;SDS011;2832;50.864;12.186;2022-07-06T08:30:54;0.80;;;0.80;;
5620;SDS011;2832;50.864;12.186;2022-07-06T08:33:21;0.70;;;0.70;;
5620;SDS011;2832;50.864;12.186;2022-07-06T08:35:51;0.60;;;0.60;;
5620;SDS011;2832;50.864;12.186;2022-07-06T08:38:19;0.70;;;0.70;;
5620;SDS011;2832;50.864;12.186;2022-07-06T08:40:47;0.70;;;0.70;;
5620;SDS011;2832;50.864;12.186;2022-07-06T08:43:16;0.70;;;0.70;;
5620;SDS011;2832;50.864;12.186;2022-07-06T08:45:45;0.80;;;0.80;;
5620;SDS011;2832;50.864;12.186;2022-07-06T08:48:18;0.80;;;0.80;;
5620;SDS011;2832;50.864;12.186;2022-07-06T08:50:51;0.80;;;0.80;;
5620;SDS011;2832;50.864;12.186;2022-07-06T08:53:21;0.80;;;0.80;;
5620;SDS011;2832;50.864;12.186;2022-07-06T08:55:51;0.80;;;0.80;;
5620;SDS011;2832;50.864;12.186;2022-07-06T08:58:19;0.80;;;0.80;;
5620;SDS011;2832;50.864;12.186;2022-07-06T09:00:48;0.70;;;0.70;;
5620;SDS011;2832;50.864;12.186;2022-07-06T09:03:17;0.80;;;0.80;;
5620;SDS011;2832;50.864;12.186;2022-07-06T09:05:46;0.80;;;0.80;;
5620;SDS011;2832;50.864;12.186;2022-07-06T09:08:14;0.90;;;0.90;;
5620;SDS011;2832;50.864;12.186;2022-07-06T09:10:42;0.80;;;0.80;;
5620;SDS011;2832;50.864;12.186;2022-07-06T09:13:10;0.80;;;0.80;;
5620;SDS011;2832;50.864;12.186;2022-07-06T09:15:38;0.80;;;0.80;;
5620;SDS011;2832;50.864;12.186;2022-07-06T09:18:06;0.80;;;0.80;;
5620;SDS011;2832;50.864;12.186;2022-07-06T09:20:37;0.70;;;0.70;;
5620;SDS011;2832;50.864;12.186;2022-07-06T09:23:07;0.87;;;0.87;;
5620;SDS011;2832;50.864;12.186;2022-07-06T09:25:34;0.77;;;0.77;;
5620;SDS011;2832;50.864;12.186;2022-07-06T09:28:04;0.80;;;0.80;;
5620;SDS011;2832;50.864;12.186;2022-07-06T09:30:32;0.80;;;0.80;;
5620;SDS011;2832;50.864;12.186;2022-07-06T09:33:05;0.80;;;0.80;;
5620;SDS011;2832;50.864;12.186;2022-07-06T09:35:37;0.80;;;0.80;;
5620;SDS011;2832;50.864;12.186;2022-07-06T09:38:06;0.80;;;0.80;;
5620;SDS011;2832;50.864;12.186;2022-07-06T09:40:34;0.80;;;0.80;;
5620;SDS011;2832;50.864;12.186;2022-07-06T09:43:13;0.70;;;0.70;;
5620;SDS011;2832;50.864;12.186;2022-07-06T09:45:43;0.70;;;0.70;;
5620;SDS011;2832;50.864;12.186;2022-07-06T09:48:12;0.70;;;0.70;;
5620;SDS011;2832;50.864;12.186;2022-07-06T09:50:46;0.80;;;0.80;;
5620;SDS011;2832;50.864;12.186;2022-07-06T09:53:17;0.80;;;0.80;;
5620;SDS011;2832;50.864;12.186;2022-07-06T09:55:49;0.70;;;0.70;;
5620;SDS011;2832;50.864;12.186;2022-07-06T09:58:17;0.80;;;0.80;;
5620;SDS011;2832;50.864;12.186;2022-07-06T10:00:47;0.70;;;0.70;;
5620;SDS011;2832;50.864;12.186;2022-07-06T10:03:15;0.20;;;0.20;;
5620;SDS011;2832;50.864;12.186;2022-07-06T10:05:46;0.10;;;0.10;;
5620;SDS011;2832;50.864;12.186;2022-07-06T10:08:17;0.10;;;0.10;;
5620;SDS011;2832;50.864;12.186;2022-07-06T10:10:46;0.73;;;0.73;;
5620;SDS011;2832;50.864;12.186;2022-07-06T10:13:15;0.77;;;0.77;;
5620;SDS011;2832;50.864;12.186;2022-07-06T10:15:48;0.80;;;0.80;;
5620;SDS011;2832;50.864;12.186;2022-07-06T10:18:17;0.80;;;0.80;;
5620;SDS011;2832;50.864;12.186;2022-07-06T10:20:46;0.80;;;0.80;;
5620;SDS011;2832;50.864;12.186;2022-07-06T10:23:14;0.70;;;0.70;;
5620;SDS011;2832;50.864;12.186;2022-07-06T10:25:45;0.77;;;0.77;;
5620;SDS011;2832;50.864;12.186;2022-07-06T10:28:14;0.70;;;0.70;;
5620;SDS011;2832;50.864;12.186;2022-07-06T10:30:43;0.80;;;0.80;;
5620;SDS011;2832;50.864;12.186;2022-07-06T10:33:13;0.70;;;0.70;;
5620;SDS011;2832;50.864;12.186;2022-07-06T10:35:42;0.80;;;0.80;;
5620;SDS011;2832;50.864;12.186;2022-07-06T10:38:12;0.80;;;0.80;;
5620;SDS011;2832;50.864;12.186;2022-07-06T10:40:41;0.80;;;0.80;;
5620;SDS011;2832;50.864;12.186;2022-07-06T10:43:32;0.80;;;0.80;;
5620;SDS011;2832;50.864;12.186;2022-07-06T10:46:06;0.80;;;0.80;;
5620;SDS011;2832;50.864;12.186;2022-07-06T10:48:36;0.70;;;0.70;;
5620;SDS011;2832;50.864;12.186;2022-07-06T10:51:04;0.80;;;0.80;;
5620;SDS011;2832;50.864;12.186;2022-07-06T10:53:34;0.70;;;0.70;;
5620;SDS011;2832;50.864;12.186;2022-07-06T10:56:05;0.80;;;0.80;;
5620;SDS011;2832;50.864;12.186;2022-07-06T10:58:34;0.80;;;0.80;;
5620;SDS011;2832;50.864;12.186;2022-07-06T11:01:03;0.70;;;0.70;;
5620;SDS011;2832;50.864;12.186;2022-07-06T11:03:36;0.70;;;0.70;;
5620;SDS011;2832;50.864;12.186;2022-07-06T11:06:06;0.80;;;0.80;;
5620;SDS011;2832;50.864;12.186;2022-07-06T11:08:43;0.80;;;0.80;;
5620;SDS011;2832;50.864;12.186;2022-07-06T11:11:13;0.80;;;0.80;;
5620;SDS011;2832;50.864;12.186;2022-07-06T11:13:43;0.77;;;0.77;;
5620;SDS011;2832;50.864;12.186;2022-07-06T11:16:15;0.80;;;0.80;;
5620;SDS011;2832;50.864;12.186;2022-07-06T11:18:46;0.70;;;0.70;;
5620;SDS011;2832;50.864;12.186;2022-07-06T11:21:15;0.80;;;0.80;;
5620;SDS011;2832;50.864;12.186;2022-07-06T11:23:47;0.90;;;0.90;;
5620;SDS011;2832;50.864;12.186;2022-07-06T11:26:15;0.67;;;0.67;;
5620;SDS011;2832;50.864;12.186;2022-07-06T11:28:45;0.73;;;0.73;;
5620;SDS011;2832;50.864;12.186;2022-07-06T11:31:14;0.70;;;0.70;;
5620;SDS011;2832;50.864;12.186;2022-07-06T11:33:44;0.73;;;0.73;;
5620;SDS011;2832;50.864;12.186;2022-07-06T11:36:16;0.70;;;0.70;;
5620;SDS011;2832;50.864;12.186;2022-07-06T11:38:47;0.60;;;0.60;;
5620;SDS011;2832;50.864;12.186;2022-07-06T11:41:16;0.67;;;0.67;;
5620;SDS011;2832;50.864;12.186;2022-07-06T11:43:45;0.60;;;0.60;;
5620;SDS011;2832;50.864;12.186;2022-07-06T11:46:20;0.70;;;0.70;;
5620;SDS011;2832;50.864;12.186;2022-07-06T11:48:49;0.70;;;0.70;;
5620;SDS011;2832;50.864;12.186;2022-07-06T11:51:20;0.73;;;0.73;;
5620;SDS011;2832;50.864;12.186;2022-07-06T11:53:50;0.77;;;0.77;;
5620;SDS011;2832;50.864;12.186;2022-07-06T11:56:20;0.70;;;0.70;;
5620;SDS011;2832;50.864;12.186;2022-07-06T11:58:51;0.70;;;0.70;;
5620;SDS011;2832;50.864;12.186;2022-07-06T12:01:21;0.70;;;0.70;;
5620;SDS011;2832;50.864;12.186;2022-07-06T12:03:50;0.70;;;0.70;;
5620;SDS011;2832;50.864;12.186;2022-07-06T12:06:18;0.70;;;0.70;;
5620;SDS011;2832;50.864;12.186;2022-07-06T12:08:50;0.70;;;0.70;;
5620;SDS011;2832;50.864;12.186;2022-07-06T12:11:20;0.60;;;0.60;;
5620;SDS011;2832;50.864;12.186;2022-07-06T12:13:49;0.70;;;0.70;;
5620;SDS011;2832;50.864;12.186;2022-07-06T12:16:20;0.60;;;0.60;;
5620;SDS011;2832;50.864;12.186;2022-07-06T12:18:49;0.60;;;0.60;;
5620;SDS011;2832;50.864;12.186;2022-07-06T12:21:18;0.70;;;0.70;;
5620;SDS011;2832;50.864;12.186;2022-07-06T12:23:50;0.60;;;0.60;;
5620;SDS011;2832;50.864;12.186;2022-07-06T12:26:19;0.70;;;0.70;;
5620;SDS011;2832;50.864;12.186;2022-07-06T12:29:00;0.70;;;0.70;;
5620;SDS011;2832;50.864;12.186;2022-07-06T12:31:31;0.70;;;0.70;;
5620;SDS011;2832;50.864;12.186;2022-07-06T12:34:00;0.70;;;0.70;;
5620;SDS011;2832;50.864;12.186;2022-07-06T12:36:28;0.70;;;0.70;;
5620;SDS011;2832;50.864;12.186;2022-07-06T12:38:57;0.60;;;0.60;;
5620;SDS011;2832;50.864;12.186;2022-07-06T12:41:26;0.70;;;0.70;;
5620;SDS011;2832;50.864;12.186;2022-07-06T12:44:05;0.70;;;0.70;;
5620;SDS011;2832;50.864;12.186;2022-07-06T12:46:36;0.63;;;0.63;;
5620;SDS011;2832;50.864;12.186;2022-07-06T12:49:15;0.70;;;0.70;;
5620;SDS011;2832;50.864;12.186;2022-07-06T12:51:50;0.70;;;0.70;;
5620;SDS011;2832;50.864;12.186;2022-07-06T12:54:28;0.70;;;0.70;;
5620;SDS011;2832;50.864;12.186;2022-07-06T12:56:58;0.80;;;0.80;;
5620;SDS011;2832;50.864;12.186;2022-07-06T12:59:28;0.70;;;0.70;;
5620;SDS011;2832;50.864;12.186;2022-07-06T13:01:57;0.70;;;0.70;;
5620;SDS011;2832;50.864;12.186;2022-07-06T13:04:25;0.70;;;0.70;;
5620;SDS011;2832;50.864;12.186;2022-07-06T13:06:58;0.70;;;0.70;;
5620;SDS011;2832;50.864;12.186;2022-07-06T13:09:32;0.60;;;0.60;;
5620;SDS011;2832;50.864;12.186;2022-07-06T13:12:03;0.80;;;0.80;;
5620;SDS011;2832;50.864;12.186;2022-07-06T13:14:31;0.70;;;0.70;;
5620;SDS011;2832;50.864;12.186;2022-07-06T13:16:59;0.60;;;0.60;;
5620;SDS011;2832;50.864;12.186;2022-07-06T13:19:27;0.73;;;0.73;;
5620;SDS011;2832;50.864;12.186;2022-07-06T13:21:55;0.70;;;0.70;;
5620;SDS011;2832;50.864;12.186;2022-07-06T13:24:23;0.80;;;0.80;;
5620;SDS011;2832;50.864;12.186;2022-07-06T13:26:55;0.70;;;0.70;;
5620;SDS011;2832;50.864;12.186;2022-07-06T13:29:25;0.80;;;0.80;;
5620;SDS011;2832;50.864;12.186;2022-07-06T13:31:53;0.60;;;0.60;;
5620;SDS011;2832;50.864;12.186;2022-07-06T13:34:21;0.70;;;0.70;;
5620;SDS011;2832;50.864;12.186;2022-07-06T13:36:49;0.70;;;0.70;;
5620;SDS011;2832;50.864;12.186;2022-07-06T13:39:19;0.70;;;0.70;;
5620;SDS011;2832;50.864;12.186;2022-07-06T13:41:47;0.60;;;0.60;;
5620;SDS011;2832;50.864;12.186;2022-07-06T13:44:17;0.70;;;0.70;;
5620;SDS011;2832;50.864;12.186;2022-07-06T13:46:44;0.80;;;0.80;;
5620;SDS011;2832;50.864;12.186;2022-07-06T13:49:12;0.77;;;0.77;;
5620;SDS011;2832;50.864;12.186;2022-07-06T13:51:40;0.70;;;0.70;;
5620;SDS011;2832;50.864;12.186;2022-07-06T13:54:08;0.70;;;0.70;;
5620;SDS011;2832;50.864;12.186;2022-07-06T13:56:36;0.80;;;0.80;;
5620;SDS011;2832;50.864;12.186;2022-07-06T13:59:05;0.70;;;0.70;;
5620;SDS011;2832;50.864;12.186;2022-07-06T14:01:35;0.70;;;0.70;;
5620;SDS011;2832;50.864;12.186;2022-07-06T14:04:02;0.70;;;0.70;;
5620;SDS011;2832;50.864;12.186;2022-07-06T14:06:30;0.70;;;0.70;;
5620;SDS011;2832;50.864;12.186;2022-07-06T14:08:59;0.70;;;0.70;;
5620;SDS011;2832;50.864;12.186;2022-07-06T14:11:28;0.70;;;0.70;;
5620;SDS011;2832;50.864;12.186;2022-07-06T14:13:56;0.70;;;0.70;;
5620;SDS011;2832;50.864;12.186;2022-07-06T14:16:24;0.77;;;0.77;;
5620;SDS011;2832;50.864;12.186;2022-07-06T14:18:53;0.77;;;0.77;;
5620;SDS011;2832;50.864;12.186;2022-07-06T14:21:21;0.80;;;0.80;;
5620;SDS011;2832;50.864;12.186;2022-07-06T14:23:49;0.70;;;0.70;;
5620;SDS011;2832;50.864;12.186;2022-07-06T14:26:17;0.70;;;0.70;;
5620;SDS011;2832;50.864;12.186;2022-07-06T14:28:46;0.63;;;0.63;;
5620;SDS011;2832;50.864;12.186;2022-07-06T14:31:20;0.70;;;0.70;;
5620;SDS011;2832;50.864;12.186;2022-07-06T14:33:52;0.60;;;0.60;;
5620;SDS011;2832;50.864;12.186;2022-07-06T14:36:21;0.70;;;0.70;;
5620;SDS011;2832;50.864;12.186;2022-07-06T14:38:48;0.70;;;0.70;;
5620;SDS011;2832;50.864;12.186;2022-07-06T14:41:16;0.67;;;0.67;;
5620;SDS011;2832;50.864;12.186;2022-07-06T14:43:44;0.70;;;0.70;;
5620;SDS011;2832;50.864;12.186;2022-07-06T14:46:12;0.70;;;0.70;;
5620;SDS011;2832;50.864;12.186;2022-07-06T14:48:39;0.70;;;0.70;;
5620;SDS011;2832;50.864;12.186;2022-07-06T14:51:08;0.70;;;0.70;;
5620;SDS011;2832;50.864;12.186;2022-07-06T14:53:36;0.60;;;0.60;;
5620;SDS011;2832;50.864;12.186;2022-07-06T14:56:05;0.60;;;0.60;;
5620;SDS011;2832;50.864;12.186;2022-07-06T14:58:33;0.70;;;0.70;;
5620;SDS011;2832;50.864;12.186;2022-07-06T15:01:01;0.70;;;0.70;;
5620;SDS011;2832;50.864;12.186;2022-07-06T15:03:29;0.70;;;0.70;;
5620;SDS011;2832;50.864;12.186;2022-07-06T15:05:57;0.70;;;0.70;;
5620;SDS011;2832;50.864;12.186;2022-07-06T15:08:26;0.60;;;0.60;;
5620;SDS011;2832;50.864;12.186;2022-07-06T15:10:54;0.70;;;0.70;;
5620;SDS011;2832;50.864;12.186;2022-07-06T15:13:22;0.60;;;0.60;;